sensor_id;sensor_type;location;lat;lon;timestamp;P1;durP1;ratioP1;P2;durP2;ratioP2
3865;SDS011;1948;53.250;10.412;2022-08-21T00:01:52;6.93;;;4.23;;
3865;SDS011;1948;53.250;10.412;2022-08-21T00:04:20;5.63;;;3.90;;
3865;SDS011;1948;53.250;10.412;2022-08-21T00:06:54;8.43;;;4.00;;
3865;SDS011;1948;53.250;10.412;2022-08-21T00:09:21;10.83;;;3.33;;
3865;SDS011;1948;53.250;10.412;2022-08-21T00:11:48;13.87;;;3.63;;
3865;SDS011;1948;53.250;10.412;2022-08-21T00:14:15;8.03;;;3.47;;
3865;SDS011;1948;53.250;10.412;2022-08-21T00:16:42;4.67;;;4.07;;
3865;SDS011;1948;53.250;10.412;2022-08-21T00:19:10;6.00;;;4.40;;
3865;SDS011;1948;53.250;10.412;2022-08-21T00:21:42;5.53;;;3.70;;
3865;SDS011;1948;53.250;10.412;2022-08-21T00:24:11;13.20;;;3.80;;
3865;SDS011;1948;53.250;10.412;2022-08-21T00:26:38;7.70;;;3.93;;
3865;SDS011;1948;53.250;10.412;2022-08-21T00:29:05;7.50;;;5.07;;
3865;SDS011;1948;53.250;10.412;2022-08-21T00:31:32;4.43;;;4.00;;
3865;SDS011;1948;53.250;10.412;2022-08-21T00:34:03;6.47;;;4.30;;
3865;SDS011;1948;53.250;10.412;2022-08-21T00:36:30;4.17;;;3.87;;
3865;SDS011;1948;53.250;10.412;2022-08-21T00:38:57;7.53;;;3.47;;
3865;SDS011;1948;53.250;10.412;2022-08-21T00:41:24;24.43;;;3.87;;
3865;SDS011;1948;53.250;10.412;2022-08-21T00:44:04;5.80;;;3.33;;
3865;SDS011;1948;53.250;10.412;2022-08-21T00:46:34;3.80;;;3.20;;
3865;SDS011;1948;53.250;10.412;2022-08-21T00:49:02;8.23;;;2.60;;
3865;SDS011;1948;53.250;10.412;2022-08-21T00:51:38;8.93;;;3.00;;
3865;SDS011;1948;53.250;10.412;2022-08-21T00:54:11;5.27;;;3.37;;
3865;SDS011;1948;53.250;10.412;2022-08-21T00:56:43;6.43;;;3.60;;
3865;SDS011;1948;53.250;10.412;2022-08-21T00:59:16;10.33;;;3.23;;
3865;SDS011;1948;53.250;10.412;2022-08-21T01:01:48;6.73;;;3.20;;
3865;SDS011;1948;53.250;10.412;2022-08-21T01:04:16;14.73;;;3.93;;
3865;SDS011;1948;53.250;10.412;2022-08-21T01:06:48;5.73;;;3.50;;
3865;SDS011;1948;53.250;10.412;2022-08-21T01:09:15;6.20;;;3.33;;
3865;SDS011;1948;53.250;10.412;2022-08-21T01:11:46;4.20;;;3.10;;
3865;SDS011;1948;53.250;10.412;2022-08-21T01:14:14;3.90;;;2.93;;
3865;SDS011;1948;53.250;10.412;2022-08-21T01:16:50;3.43;;;3.17;;
3865;SDS011;1948;53.250;10.412;2022-08-21T01:19:19;4.60;;;3.13;;
3865;SDS011;1948;53.250;10.412;2022-08-21T01:21:50;3.70;;;3.00;;
3865;SDS011;1948;53.250;10.412;2022-08-21T01:24:20;4.13;;;3.03;;
3865;SDS011;1948;53.250;10.412;2022-08-21T01:26:51;3.23;;;3.03;;
3865;SDS011;1948;53.250;10.412;2022-08-21T01:32:12;13.20;;;3.70;;
3865;SDS011;1948;53.250;10.412;2022-08-21T01:34:46;5.70;;;3.50;;
3865;SDS011;1948;53.250;10.412;2022-08-21T01:37:17;7.93;;;3.27;;
3865;SDS011;1948;53.250;10.412;2022-08-21T01:39:48;10.20;;;3.30;;
3865;SDS011;1948;53.250;10.412;2022-08-21T01:42:18;9.97;;;3.50;;
3865;SDS011;1948;53.250;10.412;2022-08-21T01:44:45;20.10;;;4.03;;
3865;SDS011;1948;53.250;10.412;2022-08-21T01:47:13;5.03;;;3.60;;
3865;SDS011;1948;53.250;10.412;2022-08-21T01:49:43;3.63;;;3.10;;
3865;SDS011;1948;53.250;10.412;2022-08-21T01:52:11;7.43;;;3.47;;
3865;SDS011;1948;53.250;10.412;2022-08-21T01:54:38;6.53;;;4.10;;
3865;SDS011;1948;53.250;10.412;2022-08-21T01:57:05;5.77;;;3.60;;
3865;SDS011;1948;53.250;10.412;2022-08-21T01:59:33;3.80;;;2.90;;
3865;SDS011;1948;53.250;10.412;2022-08-21T02:02:03;4.60;;;3.70;;
3865;SDS011;1948;53.250;10.412;2022-08-21T02:04:30;6.87;;;3.30;;
3865;SDS011;1948;53.250;10.412;2022-08-21T02:06:59;3.47;;;3.27;;
3865;SDS011;1948;53.250;10.412;2022-08-21T02:09:28;5.13;;;3.53;;
3865;SDS011;1948;53.250;10.412;2022-08-21T02:11:55;9.13;;;3.43;;
3865;SDS011;1948;53.250;10.412;2022-08-21T02:14:25;4.40;;;3.30;;
3865;SDS011;1948;53.250;10.412;2022-08-21T02:16:58;7.40;;;4.00;;
3865;SDS011;1948;53.250;10.412;2022-08-21T02:19:36;3.37;;;3.17;;
3865;SDS011;1948;53.250;10.412;2022-08-21T02:22:06;16.80;;;4.10;;
3865;SDS011;1948;53.250;10.412;2022-08-21T02:24:35;4.53;;;3.27;;
3865;SDS011;1948;53.250;10.412;2022-08-21T02:27:20;4.43;;;3.33;;
3865;SDS011;1948;53.250;10.412;2022-08-21T02:29:53;4.03;;;3.63;;
3865;SDS011;1948;53.250;10.412;2022-08-21T02:32:25;4.27;;;3.27;;
3865;SDS011;1948;53.250;10.412;2022-08-21T02:34:52;6.83;;;3.40;;
3865;SDS011;1948;53.250;10.412;2022-08-21T02:37:19;6.10;;;3.20;;
3865;SDS011;1948;53.250;10.412;2022-08-21T02:39:47;4.93;;;3.60;;
3865;SDS011;1948;53.250;10.412;2022-08-21T02:42:14;12.47;;;4.23;;
3865;SDS011;1948;53.250;10.412;2022-08-21T02:44:47;6.10;;;3.50;;
3865;SDS011;1948;53.250;10.412;2022-08-21T02:47:14;3.70;;;3.37;;
3865;SDS011;1948;53.250;10.412;2022-08-21T02:49:44;4.50;;;3.60;;
3865;SDS011;1948;53.250;10.412;2022-08-21T02:52:15;9.00;;;4.00;;
3865;SDS011;1948;53.250;10.412;2022-08-21T02:54:46;14.17;;;4.00;;
3865;SDS011;1948;53.250;10.412;2022-08-21T02:57:15;4.43;;;3.60;;
3865;SDS011;1948;53.250;10.412;2022-08-21T02:59:42;28.90;;;4.30;;
3865;SDS011;1948;53.250;10.412;2022-08-21T03:02:13;4.33;;;4.00;;
3865;SDS011;1948;53.250;10.412;2022-08-21T03:04:42;4.87;;;4.07;;
3865;SDS011;1948;53.250;10.412;2022-08-21T03:07:12;4.57;;;4.17;;
3865;SDS011;1948;53.250;10.412;2022-08-21T03:09:39;5.20;;;3.83;;
3865;SDS011;1948;53.250;10.412;2022-08-21T03:12:20;9.20;;;3.43;;
3865;SDS011;1948;53.250;10.412;2022-08-21T03:14:55;4.10;;;3.53;;
3865;SDS011;1948;53.250;10.412;2022-08-21T03:17:24;4.10;;;3.50;;
3865;SDS011;1948;53.250;10.412;2022-08-21T03:19:55;6.70;;;3.60;;
3865;SDS011;1948;53.250;10.412;2022-08-21T03:22:24;7.87;;;4.00;;
3865;SDS011;1948;53.250;10.412;2022-08-21T03:24:55;5.30;;;3.60;;
3865;SDS011;1948;53.250;10.412;2022-08-21T03:27:23;4.37;;;3.97;;
3865;SDS011;1948;53.250;10.412;2022-08-21T03:29:50;3.87;;;3.50;;
3865;SDS011;1948;53.250;10.412;2022-08-21T03:32:20;3.97;;;3.53;;
3865;SDS011;1948;53.250;10.412;2022-08-21T03:34:47;7.83;;;3.67;;
3865;SDS011;1948;53.250;10.412;2022-08-21T03:37:15;6.93;;;4.07;;
3865;SDS011;1948;53.250;10.412;2022-08-21T03:39:43;4.33;;;3.90;;
3865;SDS011;1948;53.250;10.412;2022-08-21T03:42:13;3.27;;;3.07;;
3865;SDS011;1948;53.250;10.412;2022-08-21T03:44:40;8.40;;;4.10;;
3865;SDS011;1948;53.250;10.412;2022-08-21T03:47:07;7.60;;;3.67;;
3865;SDS011;1948;53.250;10.412;2022-08-21T03:49:35;9.17;;;3.73;;
3865;SDS011;1948;53.250;10.412;2022-08-21T03:52:03;14.80;;;3.87;;
3865;SDS011;1948;53.250;10.412;2022-08-21T03:54:31;5.13;;;3.70;;
3865;SDS011;1948;53.250;10.412;2022-08-21T03:56:58;18.17;;;3.30;;
3865;SDS011;1948;53.250;10.412;2022-08-21T03:59:27;8.97;;;3.57;;
3865;SDS011;1948;53.250;10.412;2022-08-21T04:01:56;5.70;;;3.80;;
3865;SDS011;1948;53.250;10.412;2022-08-21T04:04:26;5.23;;;3.77;;
3865;SDS011;1948;53.250;10.412;2022-08-21T04:06:55;6.83;;;3.50;;
3865;SDS011;1948;53.250;10.412;2022-08-21T04:09:23;8.03;;;4.23;;
3865;SDS011;1948;53.250;10.412;2022-08-21T04:11:53;7.17;;;3.87;;
3865;SDS011;1948;53.250;10.412;2022-08-21T04:14:20;6.87;;;4.10;;
3865;SDS011;1948;53.250;10.412;2022-08-21T04:16:52;25.77;;;5.23;;
3865;SDS011;1948;53.250;10.412;2022-08-21T04:19:19;5.60;;;4.10;;
3865;SDS011;1948;53.250;10.412;2022-08-21T04:21:46;5.80;;;3.77;;
3865;SDS011;1948;53.250;10.412;2022-08-21T04:24:17;8.27;;;3.63;;
3865;SDS011;1948;53.250;10.412;2022-08-21T04:26:45;7.27;;;3.77;;
3865;SDS011;1948;53.250;10.412;2022-08-21T04:29:14;4.00;;;3.70;;
3865;SDS011;1948;53.250;10.412;2022-08-21T04:31:44;7.03;;;3.90;;
3865;SDS011;1948;53.250;10.412;2022-08-21T04:34:10;9.80;;;4.20;;
3865;SDS011;1948;53.250;10.412;2022-08-21T04:36:38;4.10;;;3.80;;
3865;SDS011;1948;53.250;10.412;2022-08-21T04:39:05;5.07;;;3.73;;
3865;SDS011;1948;53.250;10.412;2022-08-21T04:41:35;4.33;;;3.93;;
3865;SDS011;1948;53.250;10.412;2022-08-21T04:44:02;4.77;;;3.90;;
3865;SDS011;1948;53.250;10.412;2022-08-21T04:46:33;13.40;;;4.17;;
3865;SDS011;1948;53.250;10.412;2022-08-21T04:49:00;5.50;;;3.90;;
3865;SDS011;1948;53.250;10.412;2022-08-21T04:51:29;6.43;;;4.10;;
3865;SDS011;1948;53.250;10.412;2022-08-21T04:54:10;4.67;;;4.43;;
3865;SDS011;1948;53.250;10.412;2022-08-21T04:56:45;12.53;;;4.07;;
3865;SDS011;1948;53.250;10.412;2022-08-21T04:59:24;12.20;;;4.20;;
3865;SDS011;1948;53.250;10.412;2022-08-21T05:02:02;4.90;;;3.63;;
3865;SDS011;1948;53.250;10.412;2022-08-21T05:04:33;3.93;;;3.63;;
3865;SDS011;1948;53.250;10.412;2022-08-21T05:07:06;3.70;;;3.40;;
3865;SDS011;1948;53.250;10.412;2022-08-21T05:09:39;4.10;;;3.50;;
3865;SDS011;1948;53.250;10.412;2022-08-21T05:12:09;5.47;;;3.67;;
3865;SDS011;1948;53.250;10.412;2022-08-21T05:14:36;4.43;;;4.00;;
3865;SDS011;1948;53.250;10.412;2022-08-21T05:17:04;3.40;;;3.30;;
3865;SDS011;1948;53.250;10.412;2022-08-21T05:19:31;6.33;;;3.87;;
3865;SDS011;1948;53.250;10.412;2022-08-21T05:21:58;10.03;;;3.70;;
3865;SDS011;1948;53.250;10.412;2022-08-21T05:24:26;4.60;;;4.30;;
3865;SDS011;1948;53.250;10.412;2022-08-21T05:26:54;4.50;;;3.43;;
3865;SDS011;1948;53.250;10.412;2022-08-21T05:29:21;4.60;;;3.40;;
3865;SDS011;1948;53.250;10.412;2022-08-21T05:31:48;8.57;;;3.53;;
3865;SDS011;1948;53.250;10.412;2022-08-21T05:34:21;5.90;;;3.60;;
3865;SDS011;1948;53.250;10.412;2022-08-21T05:36:52;6.67;;;3.47;;
3865;SDS011;1948;53.250;10.412;2022-08-21T05:39:18;3.80;;;3.40;;
3865;SDS011;1948;53.250;10.412;2022-08-21T05:41:48;9.03;;;3.43;;
3865;SDS011;1948;53.250;10.412;2022-08-21T05:44:15;4.20;;;3.50;;
3865;SDS011;1948;53.250;10.412;2022-08-21T05:46:44;3.43;;;3.33;;
3865;SDS011;1948;53.250;10.412;2022-08-21T05:49:14;7.17;;;3.70;;
3865;SDS011;1948;53.250;10.412;2022-08-21T05:51:41;3.60;;;3.30;;
3865;SDS011;1948;53.250;10.412;2022-08-21T05:54:08;11.00;;;3.10;;
3865;SDS011;1948;53.250;10.412;2022-08-21T05:56:35;3.73;;;3.40;;
3865;SDS011;1948;53.250;10.412;2022-08-21T05:59:02;11.60;;;3.70;;
3865;SDS011;1948;53.250;10.412;2022-08-21T06:01:34;7.50;;;4.33;;
3865;SDS011;1948;53.250;10.412;2022-08-21T06:04:02;3.90;;;3.30;;
3865;SDS011;1948;53.250;10.412;2022-08-21T06:06:31;4.87;;;3.20;;
3865;SDS011;1948;53.250;10.412;2022-08-21T06:08:58;6.77;;;3.40;;
3865;SDS011;1948;53.250;10.412;2022-08-21T06:11:28;8.03;;;3.50;;
3865;SDS011;1948;53.250;10.412;2022-08-21T06:13:56;4.93;;;3.80;;
3865;SDS011;1948;53.250;10.412;2022-08-21T06:16:23;5.97;;;2.90;;
3865;SDS011;1948;53.250;10.412;2022-08-21T06:18:51;3.00;;;2.80;;
3865;SDS011;1948;53.250;10.412;2022-08-21T06:21:18;5.13;;;3.13;;
3865;SDS011;1948;53.250;10.412;2022-08-21T06:23:45;11.30;;;2.60;;
3865;SDS011;1948;53.250;10.412;2022-08-21T06:26:13;3.60;;;3.00;;
3865;SDS011;1948;53.250;10.412;2022-08-21T06:28:41;7.70;;;2.80;;
3865;SDS011;1948;53.250;10.412;2022-08-21T06:31:19;6.30;;;2.90;;
3865;SDS011;1948;53.250;10.412;2022-08-21T06:33:51;7.80;;;2.60;;
3865;SDS011;1948;53.250;10.412;2022-08-21T06:36:18;3.00;;;2.90;;
3865;SDS011;1948;53.250;10.412;2022-08-21T06:38:49;3.80;;;2.90;;
3865;SDS011;1948;53.250;10.412;2022-08-21T06:41:25;7.40;;;4.00;;
3865;SDS011;1948;53.250;10.412;2022-08-21T06:43:53;6.93;;;2.87;;
3865;SDS011;1948;53.250;10.412;2022-08-21T06:46:22;5.00;;;3.13;;
3865;SDS011;1948;53.250;10.412;2022-08-21T06:48:52;9.00;;;3.20;;
3865;SDS011;1948;53.250;10.412;2022-08-21T06:51:19;4.97;;;2.90;;
3865;SDS011;1948;53.250;10.412;2022-08-21T06:53:46;3.97;;;2.60;;
3865;SDS011;1948;53.250;10.412;2022-08-21T06:56:13;9.63;;;3.80;;
3865;SDS011;1948;53.250;10.412;2022-08-21T06:58:39;5.73;;;3.40;;
3865;SDS011;1948;53.250;10.412;2022-08-21T07:01:09;4.53;;;3.40;;
3865;SDS011;1948;53.250;10.412;2022-08-21T07:03:39;2.47;;;2.20;;
3865;SDS011;1948;53.250;10.412;2022-08-21T07:06:10;11.40;;;2.57;;
3865;SDS011;1948;53.250;10.412;2022-08-21T07:08:38;7.23;;;2.90;;
3865;SDS011;1948;53.250;10.412;2022-08-21T07:11:13;9.83;;;2.80;;
3865;SDS011;1948;53.250;10.412;2022-08-21T07:13:47;11.50;;;3.60;;
3865;SDS011;1948;53.250;10.412;2022-08-21T07:16:14;3.20;;;2.60;;
3865;SDS011;1948;53.250;10.412;2022-08-21T07:18:41;8.13;;;2.40;;
3865;SDS011;1948;53.250;10.412;2022-08-21T07:21:08;2.27;;;2.17;;
3865;SDS011;1948;53.250;10.412;2022-08-21T07:23:39;7.53;;;2.60;;
3865;SDS011;1948;53.250;10.412;2022-08-21T07:26:11;6.07;;;3.00;;
3865;SDS011;1948;53.250;10.412;2022-08-21T07:28:39;3.60;;;2.10;;
3865;SDS011;1948;53.250;10.412;2022-08-21T07:31:09;3.57;;;2.00;;
3865;SDS011;1948;53.250;10.412;2022-08-21T07:33:41;2.33;;;2.13;;
3865;SDS011;1948;53.250;10.412;2022-08-21T07:36:09;10.87;;;2.40;;
3865;SDS011;1948;53.250;10.412;2022-08-21T07:38:41;5.13;;;2.17;;
3865;SDS011;1948;53.250;10.412;2022-08-21T07:41:16;10.37;;;2.27;;
3865;SDS011;1948;53.250;10.412;2022-08-21T07:43:49;2.70;;;2.50;;
3865;SDS011;1948;53.250;10.412;2022-08-21T07:46:18;6.33;;;2.37;;
3865;SDS011;1948;53.250;10.412;2022-08-21T07:48:47;6.70;;;2.00;;
3865;SDS011;1948;53.250;10.412;2022-08-21T07:51:15;9.97;;;2.90;;
3865;SDS011;1948;53.250;10.412;2022-08-21T07:53:53;2.83;;;2.07;;
3865;SDS011;1948;53.250;10.412;2022-08-21T07:56:26;5.40;;;2.40;;
3865;SDS011;1948;53.250;10.412;2022-08-21T07:58:53;8.87;;;2.23;;
3865;SDS011;1948;53.250;10.412;2022-08-21T08:01:23;3.67;;;1.53;;
3865;SDS011;1948;53.250;10.412;2022-08-21T08:03:53;2.40;;;2.00;;
3865;SDS011;1948;53.250;10.412;2022-08-21T08:06:21;7.93;;;2.40;;
3865;SDS011;1948;53.250;10.412;2022-08-21T08:08:49;5.87;;;2.63;;
3865;SDS011;1948;53.250;10.412;2022-08-21T08:11:19;7.23;;;2.50;;
3865;SDS011;1948;53.250;10.412;2022-08-21T08:13:51;4.67;;;2.53;;
3865;SDS011;1948;53.250;10.412;2022-08-21T08:16:18;7.93;;;2.67;;
3865;SDS011;1948;53.250;10.412;2022-08-21T08:18:48;11.23;;;2.90;;
3865;SDS011;1948;53.250;10.412;2022-08-21T08:21:15;3.60;;;3.30;;
3865;SDS011;1948;53.250;10.412;2022-08-21T08:23:42;5.57;;;3.33;;
3865;SDS011;1948;53.250;10.412;2022-08-21T08:26:11;4.00;;;3.00;;
3865;SDS011;1948;53.250;10.412;2022-08-21T08:28:41;3.37;;;3.00;;
3865;SDS011;1948;53.250;10.412;2022-08-21T08:31:13;3.50;;;2.80;;
3865;SDS011;1948;53.250;10.412;2022-08-21T08:33:41;5.83;;;2.37;;
3865;SDS011;1948;53.250;10.412;2022-08-21T08:36:12;6.37;;;3.30;;
3865;SDS011;1948;53.250;10.412;2022-08-21T08:38:46;6.90;;;3.20;;
3865;SDS011;1948;53.250;10.412;2022-08-21T08:41:17;3.90;;;3.60;;
3865;SDS011;1948;53.250;10.412;2022-08-21T08:43:54;6.13;;;3.50;;
3865;SDS011;1948;53.250;10.412;2022-08-21T08:46:35;7.87;;;4.60;;
3865;SDS011;1948;53.250;10.412;2022-08-21T08:49:06;10.57;;;4.97;;
3865;SDS011;1948;53.250;10.412;2022-08-21T08:52:05;15.63;;;3.23;;
3865;SDS011;1948;53.250;10.412;2022-08-21T08:57:42;7.70;;;2.80;;
3865;SDS011;1948;53.250;10.412;2022-08-21T09:00:16;4.83;;;3.00;;
3865;SDS011;1948;53.250;10.412;2022-08-21T09:02:49;2.70;;;2.20;;
3865;SDS011;1948;53.250;10.412;2022-08-21T09:13:43;7.93;;;2.60;;
3865;SDS011;1948;53.250;10.412;2022-08-21T09:25:22;9.00;;;2.93;;
3865;SDS011;1948;53.250;10.412;2022-08-21T09:27:54;5.63;;;2.53;;
3865;SDS011;1948;53.250;10.412;2022-08-21T09:30:31;7.07;;;2.57;;
3865;SDS011;1948;53.250;10.412;2022-08-21T09:33:01;8.33;;;2.43;;
3865;SDS011;1948;53.250;10.412;2022-08-21T09:35:28;4.50;;;2.60;;
3865;SDS011;1948;53.250;10.412;2022-08-21T09:38:04;6.27;;;2.23;;
3865;SDS011;1948;53.250;10.412;2022-08-21T09:43:19;3.67;;;2.23;;
3865;SDS011;1948;53.250;10.412;2022-08-21T09:45:49;7.20;;;2.40;;
3865;SDS011;1948;53.250;10.412;2022-08-21T09:48:48;13.77;;;2.77;;
3865;SDS011;1948;53.250;10.412;2022-08-21T09:51:21;9.53;;;2.77;;
3865;SDS011;1948;53.250;10.412;2022-08-21T09:56:33;4.93;;;2.10;;
3865;SDS011;1948;53.250;10.412;2022-08-21T09:59:32;6.60;;;2.73;;
3865;SDS011;1948;53.250;10.412;2022-08-21T10:02:19;7.30;;;3.03;;
3865;SDS011;1948;53.250;10.412;2022-08-21T10:05:14;6.60;;;2.50;;
3865;SDS011;1948;53.250;10.412;2022-08-21T10:07:51;6.70;;;2.70;;
3865;SDS011;1948;53.250;10.412;2022-08-21T10:10:28;12.60;;;2.77;;
3865;SDS011;1948;53.250;10.412;2022-08-21T10:13:02;6.23;;;3.00;;
3865;SDS011;1948;53.250;10.412;2022-08-21T10:16:11;9.73;;;2.70;;
3865;SDS011;1948;53.250;10.412;2022-08-21T10:21:58;8.53;;;2.53;;
3865;SDS011;1948;53.250;10.412;2022-08-21T10:33:28;8.97;;;3.33;;
3865;SDS011;1948;53.250;10.412;2022-08-21T10:36:29;2.53;;;2.30;;
3865;SDS011;1948;53.250;10.412;2022-08-21T10:47:57;9.20;;;2.83;;
3865;SDS011;1948;53.250;10.412;2022-08-21T11:07:18;7.73;;;2.40;;
3865;SDS011;1948;53.250;10.412;2022-08-21T11:10:02;15.43;;;2.63;;
3865;SDS011;1948;53.250;10.412;2022-08-21T11:12:46;4.43;;;2.07;;
3865;SDS011;1948;53.250;10.412;2022-08-21T11:27:40;5.40;;;2.90;;
3865;SDS011;1948;53.250;10.412;2022-08-21T11:30:12;3.80;;;2.40;;
3865;SDS011;1948;53.250;10.412;2022-08-21T11:32:57;2.80;;;2.30;;
3865;SDS011;1948;53.250;10.412;2022-08-21T11:35:58;7.43;;;2.17;;
3865;SDS011;1948;53.250;10.412;2022-08-21T11:41:54;4.13;;;2.23;;
3865;SDS011;1948;53.250;10.412;2022-08-21T11:44:40;5.23;;;1.87;;
3865;SDS011;1948;53.250;10.412;2022-08-21T11:47:14;7.07;;;2.40;;
3865;SDS011;1948;53.250;10.412;2022-08-21T11:50:29;9.13;;;2.07;;
3865;SDS011;1948;53.250;10.412;2022-08-21T11:58:35;2.07;;;1.97;;
3865;SDS011;1948;53.250;10.412;2022-08-21T12:01:44;4.00;;;2.20;;
3865;SDS011;1948;53.250;10.412;2022-08-21T12:07:15;3.10;;;1.70;;
3865;SDS011;1948;53.250;10.412;2022-08-21T12:10:05;6.10;;;2.30;;
3865;SDS011;1948;53.250;10.412;2022-08-21T12:12:41;5.17;;;2.33;;
3865;SDS011;1948;53.250;10.412;2022-08-21T12:23:03;1.60;;;1.50;;
3865;SDS011;1948;53.250;10.412;2022-08-21T12:26:00;3.43;;;1.50;;
3865;SDS011;1948;53.250;10.412;2022-08-21T12:28:30;1.60;;;1.50;;
3865;SDS011;1948;53.250;10.412;2022-08-21T12:30:57;3.07;;;1.60;;
3865;SDS011;1948;53.250;10.412;2022-08-21T12:33:40;1.33;;;1.30;;
3865;SDS011;1948;53.250;10.412;2022-08-21T12:36:12;3.50;;;1.93;;
3865;SDS011;1948;53.250;10.412;2022-08-21T12:38:50;3.37;;;1.60;;
3865;SDS011;1948;53.250;10.412;2022-08-21T12:41:42;2.83;;;1.97;;
3865;SDS011;1948;53.250;10.412;2022-08-21T12:44:17;4.57;;;1.87;;
3865;SDS011;1948;53.250;10.412;2022-08-21T12:47:11;1.63;;;1.53;;
3865;SDS011;1948;53.250;10.412;2022-08-21T12:49:54;4.23;;;2.33;;
3865;SDS011;1948;53.250;10.412;2022-08-21T12:52:43;7.77;;;1.50;;
3865;SDS011;1948;53.250;10.412;2022-08-21T12:55:25;5.03;;;2.10;;
3865;SDS011;1948;53.250;10.412;2022-08-21T12:57:57;2.90;;;1.50;;
3865;SDS011;1948;53.250;10.412;2022-08-21T13:00:28;6.50;;;1.80;;
3865;SDS011;1948;53.250;10.412;2022-08-21T13:02:56;1.53;;;1.43;;
3865;SDS011;1948;53.250;10.412;2022-08-21T13:05:29;2.00;;;1.60;;
3865;SDS011;1948;53.250;10.412;2022-08-21T13:08:03;3.73;;;1.83;;
3865;SDS011;1948;53.250;10.412;2022-08-21T13:10:33;1.93;;;1.70;;
3865;SDS011;1948;53.250;10.412;2022-08-21T13:13:02;2.73;;;1.77;;
3865;SDS011;1948;53.250;10.412;2022-08-21T13:15:38;2.20;;;1.73;;
3865;SDS011;1948;53.250;10.412;2022-08-21T13:18:23;6.50;;;1.50;;
3865;SDS011;1948;53.250;10.412;2022-08-21T13:21:03;2.50;;;1.60;;
3865;SDS011;1948;53.250;10.412;2022-08-21T13:23:33;3.17;;;1.63;;
3865;SDS011;1948;53.250;10.412;2022-08-21T13:26:00;4.30;;;1.67;;
3865;SDS011;1948;53.250;10.412;2022-08-21T13:28:33;2.63;;;2.43;;
3865;SDS011;1948;53.250;10.412;2022-08-21T13:31:05;2.67;;;1.90;;
3865;SDS011;1948;53.250;10.412;2022-08-21T13:33:39;3.90;;;1.07;;
3865;SDS011;1948;53.250;10.412;2022-08-21T13:38:56;3.13;;;1.40;;
3865;SDS011;1948;53.250;10.412;2022-08-21T13:41:31;1.87;;;1.77;;
3865;SDS011;1948;53.250;10.412;2022-08-21T13:44:04;2.20;;;1.83;;
3865;SDS011;1948;53.250;10.412;2022-08-21T13:46:46;1.73;;;1.50;;
3865;SDS011;1948;53.250;10.412;2022-08-21T13:49:16;4.37;;;2.30;;
3865;SDS011;1948;53.250;10.412;2022-08-21T13:51:46;3.03;;;1.50;;
3865;SDS011;1948;53.250;10.412;2022-08-21T13:57:19;3.13;;;1.50;;
3865;SDS011;1948;53.250;10.412;2022-08-21T14:02:51;1.50;;;1.40;;
3865;SDS011;1948;53.250;10.412;2022-08-21T14:05:30;2.80;;;1.30;;
3865;SDS011;1948;53.250;10.412;2022-08-21T14:08:18;1.80;;;1.20;;
3865;SDS011;1948;53.250;10.412;2022-08-21T14:11:03;3.53;;;1.53;;
3865;SDS011;1948;53.250;10.412;2022-08-21T14:13:37;9.23;;;1.80;;
3865;SDS011;1948;53.250;10.412;2022-08-21T14:21:32;3.40;;;1.70;;
3865;SDS011;1948;53.250;10.412;2022-08-21T14:24:13;4.77;;;1.80;;
3865;SDS011;1948;53.250;10.412;2022-08-21T14:29:25;4.63;;;1.60;;
3865;SDS011;1948;53.250;10.412;2022-08-21T14:31:59;2.80;;;1.43;;
3865;SDS011;1948;53.250;10.412;2022-08-21T14:34:50;5.87;;;1.80;;
3865;SDS011;1948;53.250;10.412;2022-08-21T14:37:24;3.03;;;1.70;;
3865;SDS011;1948;53.250;10.412;2022-08-21T14:39:51;3.43;;;2.20;;
3865;SDS011;1948;53.250;10.412;2022-08-21T14:42:19;1.80;;;1.70;;
3865;SDS011;1948;53.250;10.412;2022-08-21T14:44:46;3.57;;;1.70;;
3865;SDS011;1948;53.250;10.412;2022-08-21T14:47:14;2.07;;;1.90;;
3865;SDS011;1948;53.250;10.412;2022-08-21T14:49:42;4.10;;;1.90;;
3865;SDS011;1948;53.250;10.412;2022-08-21T14:52:11;2.97;;;2.10;;
3865;SDS011;1948;53.250;10.412;2022-08-21T14:54:41;4.33;;;1.70;;
3865;SDS011;1948;53.250;10.412;2022-08-21T14:57:11;2.57;;;2.07;;
3865;SDS011;1948;53.250;10.412;2022-08-21T14:59:41;3.43;;;1.70;;
3865;SDS011;1948;53.250;10.412;2022-08-21T15:02:09;3.03;;;1.60;;
3865;SDS011;1948;53.250;10.412;2022-08-21T15:04:36;7.17;;;2.30;;
3865;SDS011;1948;53.250;10.412;2022-08-21T15:07:03;7.20;;;1.60;;
3865;SDS011;1948;53.250;10.412;2022-08-21T15:09:30;9.57;;;2.00;;
3865;SDS011;1948;53.250;10.412;2022-08-21T15:11:58;3.80;;;2.20;;
3865;SDS011;1948;53.250;10.412;2022-08-21T15:14:29;2.50;;;2.03;;
3865;SDS011;1948;53.250;10.412;2022-08-21T15:17:02;2.30;;;2.20;;
3865;SDS011;1948;53.250;10.412;2022-08-21T15:19:35;2.00;;;1.67;;
3865;SDS011;1948;53.250;10.412;2022-08-21T15:22:05;2.30;;;2.00;;
3865;SDS011;1948;53.250;10.412;2022-08-21T15:24:43;7.07;;;2.07;;
3865;SDS011;1948;53.250;10.412;2022-08-21T15:27:12;2.50;;;1.77;;
3865;SDS011;1948;53.250;10.412;2022-08-21T15:29:42;3.03;;;2.00;;
3865;SDS011;1948;53.250;10.412;2022-08-21T15:32:23;5.00;;;2.13;;
3865;SDS011;1948;53.250;10.412;2022-08-21T15:34:54;2.67;;;1.80;;
3865;SDS011;1948;53.250;10.412;2022-08-21T15:37:23;4.47;;;2.37;;
3865;SDS011;1948;53.250;10.412;2022-08-21T15:39:52;5.00;;;2.23;;
3865;SDS011;1948;53.250;10.412;2022-08-21T15:42:22;3.63;;;1.90;;
3865;SDS011;1948;53.250;10.412;2022-08-21T15:44:55;2.20;;;2.00;;
3865;SDS011;1948;53.250;10.412;2022-08-21T15:47:30;2.33;;;1.80;;
3865;SDS011;1948;53.250;10.412;2022-08-21T15:50:00;1.70;;;1.60;;
3865;SDS011;1948;53.250;10.412;2022-08-21T15:52:31;6.30;;;2.40;;
3865;SDS011;1948;53.250;10.412;2022-08-21T15:54:58;5.50;;;2.27;;
3865;SDS011;1948;53.250;10.412;2022-08-21T15:57:28;3.97;;;1.80;;
3865;SDS011;1948;53.250;10.412;2022-08-21T16:00:03;2.77;;;1.80;;
3865;SDS011;1948;53.250;10.412;2022-08-21T16:02:47;3.10;;;2.43;;
3865;SDS011;1948;53.250;10.412;2022-08-21T16:05:20;9.13;;;2.70;;
3865;SDS011;1948;53.250;10.412;2022-08-21T16:07:49;8.23;;;2.37;;
3865;SDS011;1948;53.250;10.412;2022-08-21T16:10:20;3.50;;;1.70;;
3865;SDS011;1948;53.250;10.412;2022-08-21T16:12:58;6.77;;;2.50;;
3865;SDS011;1948;53.250;10.412;2022-08-21T16:15:29;3.80;;;2.07;;
3865;SDS011;1948;53.250;10.412;2022-08-21T16:17:56;2.40;;;1.80;;
3865;SDS011;1948;53.250;10.412;2022-08-21T16:20:26;2.07;;;1.77;;
3865;SDS011;1948;53.250;10.412;2022-08-21T16:22:55;2.30;;;2.03;;
3865;SDS011;1948;53.250;10.412;2022-08-21T16:25:24;9.20;;;2.23;;
3865;SDS011;1948;53.250;10.412;2022-08-21T16:27:54;5.40;;;2.53;;
3865;SDS011;1948;53.250;10.412;2022-08-21T16:30:25;3.47;;;2.10;;
3865;SDS011;1948;53.250;10.412;2022-08-21T16:32:55;2.37;;;1.60;;
3865;SDS011;1948;53.250;10.412;2022-08-21T16:35:22;2.77;;;1.83;;
3865;SDS011;1948;53.250;10.412;2022-08-21T16:37:50;3.60;;;1.90;;
3865;SDS011;1948;53.250;10.412;2022-08-21T16:40:22;4.53;;;2.07;;
3865;SDS011;1948;53.250;10.412;2022-08-21T16:42:52;13.10;;;2.07;;
3865;SDS011;1948;53.250;10.412;2022-08-21T16:45:19;4.70;;;1.80;;
3865;SDS011;1948;53.250;10.412;2022-08-21T16:47:47;2.83;;;1.90;;
3865;SDS011;1948;53.250;10.412;2022-08-21T16:50:14;4.27;;;1.83;;
3865;SDS011;1948;53.250;10.412;2022-08-21T16:52:47;4.33;;;2.17;;
3865;SDS011;1948;53.250;10.412;2022-08-21T16:55:15;2.13;;;1.90;;
3865;SDS011;1948;53.250;10.412;2022-08-21T16:57:44;4.40;;;1.80;;
3865;SDS011;1948;53.250;10.412;2022-08-21T17:00:12;1.97;;;1.60;;
3865;SDS011;1948;53.250;10.412;2022-08-21T17:02:49;3.00;;;1.80;;
3865;SDS011;1948;53.250;10.412;2022-08-21T17:05:19;5.60;;;1.93;;
3865;SDS011;1948;53.250;10.412;2022-08-21T17:07:46;9.83;;;2.37;;
3865;SDS011;1948;53.250;10.412;2022-08-21T17:10:13;4.80;;;2.00;;
3865;SDS011;1948;53.250;10.412;2022-08-21T17:12:48;4.07;;;2.63;;
3865;SDS011;1948;53.250;10.412;2022-08-21T17:15:23;3.97;;;2.30;;
3865;SDS011;1948;53.250;10.412;2022-08-21T17:17:55;3.47;;;1.90;;
3865;SDS011;1948;53.250;10.412;2022-08-21T17:20:22;7.70;;;2.77;;
3865;SDS011;1948;53.250;10.412;2022-08-21T17:22:51;3.10;;;2.50;;
3865;SDS011;1948;53.250;10.412;2022-08-21T17:25:21;2.13;;;1.97;;